sensor_id;sensor_type;location;lat;lon;timestamp;temperature;humidity
52555;DHT22;38455;52.710;6.502;2023-02-01T00:01:49;5.40;99.90
52555;DHT22;38455;52.710;6.502;2023-02-01T00:04:15;5.40;99.90
52555;DHT22;38455;52.710;6.502;2023-02-01T00:06:41;5.40;99.90
52555;DHT22;38455;52.710;6.502;2023-02-01T00:09:06;5.40;99.90
52555;DHT22;38455;52.710;6.502;2023-02-01T00:11:33;5.40;99.90
52555;DHT22;38455;52.710;6.502;2023-02-01T00:13:59;5.40;99.90
52555;DHT22;38455;52.710;6.502;2023-02-01T00:16:27;5.40;99.90
52555;DHT22;38455;52.710;6.502;2023-02-01T00:19:05;5.40;99.90
52555;DHT22;38455;52.710;6.502;2023-02-01T00:21:32;5.40;99.90
52555;DHT22;38455;52.710;6.502;2023-02-01T00:23:58;5.40;99.90
52555;DHT22;38455;52.710;6.502;2023-02-01T00:26:41;5.50;99.90
52555;DHT22;38455;52.710;6.502;2023-02-01T00:29:12;5.50;99.90
52555;DHT22;38455;52.710;6.502;2023-02-01T00:31:38;5.50;99.90
52555;DHT22;38455;52.710;6.502;2023-02-01T00:34:04;5.50;99.90
52555;DHT22;38455;52.710;6.502;2023-02-01T00:36:30;5.50;99.90
52555;DHT22;38455;52.710;6.502;2023-02-01T00:38:56;5.50;99.90
52555;DHT22;38455;52.710;6.502;2023-02-01T00:41:23;5.50;99.90
52555;DHT22;38455;52.710;6.502;2023-02-01T00:43:49;5.50;99.90
52555;DHT22;38455;52.710;6.502;2023-02-01T00:46:17;5.50;99.90
52555;DHT22;38455;52.710;6.502;2023-02-01T00:48:42;5.40;99.90
52555;DHT22;38455;52.710;6.502;2023-02-01T00:51:11;5.50;99.90
52555;DHT22;38455;52.710;6.502;2023-02-01T00:53:37;5.50;99.90
52555;DHT22;38455;52.710;6.502;2023-02-01T00:56:03;5.50;99.90
52555;DHT22;38455;52.710;6.502;2023-02-01T00:58:29;5.50;99.90
52555;DHT22;38455;52.710;6.502;2023-02-01T01:01:19;5.60;99.90
52555;DHT22;38455;52.710;6.502;2023-02-01T01:03:47;5.60;99.90
52555;DHT22;38455;52.710;6.502;2023-02-01T01:06:17;5.60;99.90
52555;DHT22;38455;52.710;6.502;2023-02-01T01:08:43;5.60;99.90
52555;DHT22;38455;52.710;6.502;2023-02-01T01:11:21;5.60;99.90
52555;DHT22;38455;52.710;6.502;2023-02-01T01:13:48;5.70;99.90
52555;DHT22;38455;52.710;6.502;2023-02-01T01:16:14;5.70;99.90
52555;DHT22;38455;52.710;6.502;2023-02-01T01:18:40;5.70;99.90
52555;DHT22;38455;52.710;6.502;2023-02-01T01:21:07;5.80;99.90
52555;DHT22;38455;52.710;6.502;2023-02-01T01:23:34;5.80;99.90
52555;DHT22;38455;52.710;6.502;2023-02-01T01:26:00;5.80;99.90
52555;DHT22;38455;52.710;6.502;2023-02-01T01:28:26;5.80;99.90
52555;DHT22;38455;52.710;6.502;2023-02-01T01:30:52;5.80;99.90
52555;DHT22;38455;52.710;6.502;2023-02-01T01:33:17;5.80;99.90
52555;DHT22;38455;52.710;6.502;2023-02-01T01:35:43;5.80;99.90
52555;DHT22;38455;52.710;6.502;2023-02-01T01:38:10;5.90;99.90
52555;DHT22;38455;52.710;6.502;2023-02-01T01:40:36;5.80;99.90
52555;DHT22;38455;52.710;6.502;2023-02-01T01:43:01;5.80;99.90
52555;DHT22;38455;52.710;6.502;2023-02-01T01:45:29;5.80;99.90
52555;DHT22;38455;52.710;6.502;2023-02-01T01:48:15;5.80;99.90
52555;DHT22;38455;52.710;6.502;2023-02-01T01:50:51;5.80;99.90
52555;DHT22;38455;52.710;6.502;2023-02-01T01:53:24;5.80;99.90
52555;DHT22;38455;52.710;6.502;2023-02-01T01:55:51;5.80;99.90
52555;DHT22;38455;52.710;6.502;2023-02-01T01:58:19;5.80;99.90
52555;DHT22;38455;52.710;6.502;2023-02-01T02:00:46;5.80;99.90
52555;DHT22;38455;52.710;6.502;2023-02-01T02:03:19;5.80;99.90
52555;DHT22;38455;52.710;6.502;2023-02-01T02:05:47;5.80;99.90
52555;DHT22;38455;52.710;6.502;2023-02-01T02:08:13;5.80;99.90
52555;DHT22;38455;52.710;6.502;2023-02-01T02:10:39;5.80;99.90
52555;DHT22;38455;52.710;6.502;2023-02-01T02:13:25;5.90;99.90
52555;DHT22;38455;52.710;6.502;2023-02-01T02:16:02;5.80;99.90
52555;DHT22;38455;52.710;6.502;2023-02-01T02:21:12;5.80;99.90
52555;DHT22;38455;52.710;6.502;2023-02-01T02:26:38;5.80;99.90
52555;DHT22;38455;52.710;6.502;2023-02-01T02:38:20;5.70;99.90
52555;DHT22;38455;52.710;6.502;2023-02-01T02:41:46;5.70;99.90
52555;DHT22;38455;52.710;6.502;2023-02-01T02:47:33;5.70;99.90
52555;DHT22;38455;52.710;6.502;2023-02-01T02:50:15;5.70;99.90
52555;DHT22;38455;52.710;6.502;2023-02-01T02:53:09;5.70;99.90
52555;DHT22;38455;52.710;6.502;2023-02-01T02:55:55;5.70;99.90
52555;DHT22;38455;52.710;6.502;2023-02-01T02:58:41;5.70;99.90
52555;DHT22;38455;52.710;6.502;2023-02-01T03:01:26;5.70;99.90
52555;DHT22;38455;52.710;6.502;2023-02-01T03:04:10;5.70;99.90
52555;DHT22;38455;52.710;6.502;2023-02-01T03:06:42;5.70;99.90
52555;DHT22;38455;52.710;6.502;2023-02-01T03:09:13;5.70;99.90
52555;DHT22;38455;52.710;6.502;2023-02-01T03:11:43;5.70;99.90
52555;DHT22;38455;52.710;6.502;2023-02-01T03:14:29;5.70;99.90
52555;DHT22;38455;52.710;6.502;2023-02-01T03:17:03;5.70;99.90
52555;DHT22;38455;52.710;6.502;2023-02-01T03:19:39;5.70;99.90
52555;DHT22;38455;52.710;6.502;2023-02-01T03:22:17;5.80;99.90
52555;DHT22;38455;52.710;6.502;2023-02-01T03:24:53;5.70;99.90
52555;DHT22;38455;52.710;6.502;2023-02-01T03:27:40;5.70;99.90
52555;DHT22;38455;52.710;6.502;2023-02-01T03:30:24;5.70;99.90
52555;DHT22;38455;52.710;6.502;2023-02-01T03:32:55;5.70;99.90
52555;DHT22;38455;52.710;6.502;2023-02-01T03:38:13;5.70;99.90
52555;DHT22;38455;52.710;6.502;2023-02-01T03:40:43;5.70;99.90
52555;DHT22;38455;52.710;6.502;2023-02-01T03:43:14;5.70;99.90
52555;DHT22;38455;52.710;6.502;2023-02-01T03:45:45;5.80;99.90
52555;DHT22;38455;52.710;6.502;2023-02-01T03:48:13;5.80;99.90
52555;DHT22;38455;52.710;6.502;2023-02-01T03:50:47;5.80;99.90
52555;DHT22;38455;52.710;6.502;2023-02-01T03:53:17;5.90;99.90
52555;DHT22;38455;52.710;6.502;2023-02-01T03:55:46;5.90;99.90
52555;DHT22;38455;52.710;6.502;2023-02-01T03:58:12;6.00;99.90
52555;DHT22;38455;52.710;6.502;2023-02-01T04:00:40;5.90;99.90
52555;DHT22;38455;52.710;6.502;2023-02-01T04:03:06;5.90;99.90
52555;DHT22;38455;52.710;6.502;2023-02-01T04:05:33;5.90;99.90
52555;DHT22;38455;52.710;6.502;2023-02-01T04:07:59;6.00;99.90
52555;DHT22;38455;52.710;6.502;2023-02-01T04:10:25;6.00;99.90
52555;DHT22;38455;52.710;6.502;2023-02-01T04:12:51;6.00;99.90
52555;DHT22;38455;52.710;6.502;2023-02-01T04:15:17;6.00;99.90
52555;DHT22;38455;52.710;6.502;2023-02-01T04:17:43;6.00;99.90
52555;DHT22;38455;52.710;6.502;2023-02-01T04:20:09;5.90;99.90
52555;DHT22;38455;52.710;6.502;2023-02-01T04:22:35;5.90;99.90
52555;DHT22;38455;52.710;6.502;2023-02-01T04:25:00;5.90;99.90
52555;DHT22;38455;52.710;6.502;2023-02-01T04:27:26;5.90;99.90
52555;DHT22;38455;52.710;6.502;2023-02-01T04:29:52;5.90;99.90
52555;DHT22;38455;52.710;6.502;2023-02-01T04:32:18;6.00;99.90
52555;DHT22;38455;52.710;6.502;2023-02-01T04:34:45;6.00;99.90
52555;DHT22;38455;52.710;6.502;2023-02-01T04:37:11;6.00;99.90
52555;DHT22;38455;52.710;6.502;2023-02-01T04:39:37;6.00;99.90
52555;DHT22;38455;52.710;6.502;2023-02-01T04:42:03;6.00;99.90
52555;DHT22;38455;52.710;6.502;2023-02-01T04:44:28;6.00;99.90
52555;DHT22;38455;52.710;6.502;2023-02-01T04:46:54;6.00;99.90
52555;DHT22;38455;52.710;6.502;2023-02-01T04:49:20;6.00;99.90
52555;DHT22;38455;52.710;6.502;2023-02-01T04:51:47;6.10;99.90
52555;DHT22;38455;52.710;6.502;2023-02-01T04:54:12;6.10;99.90
52555;DHT22;38455;52.710;6.502;2023-02-01T04:56:38;6.10;99.90
52555;DHT22;38455;52.710;6.502;2023-02-01T04:59:04;6.20;99.90
52555;DHT22;38455;52.710;6.502;2023-02-01T05:01:30;6.10;99.90
52555;DHT22;38455;52.710;6.502;2023-02-01T05:03:56;6.10;99.90
52555;DHT22;38455;52.710;6.502;2023-02-01T05:06:21;6.10;99.90
52555;DHT22;38455;52.710;6.502;2023-02-01T05:08:47;6.00;99.90
52555;DHT22;38455;52.710;6.502;2023-02-01T05:11:13;6.00;99.90
52555;DHT22;38455;52.710;6.502;2023-02-01T05:14:00;5.90;99.90
52555;DHT22;38455;52.710;6.502;2023-02-01T05:16:26;5.80;99.90
52555;DHT22;38455;52.710;6.502;2023-02-01T05:18:53;5.70;99.90
52555;DHT22;38455;52.710;6.502;2023-02-01T05:21:19;5.80;99.90
52555;DHT22;38455;52.710;6.502;2023-02-01T05:23:44;5.70;99.90
52555;DHT22;38455;52.710;6.502;2023-02-01T05:26:29;5.80;99.90
52555;DHT22;38455;52.710;6.502;2023-02-01T05:28:54;5.80;99.90
52555;DHT22;38455;52.710;6.502;2023-02-01T05:31:20;5.80;99.90
52555;DHT22;38455;52.710;6.502;2023-02-01T05:33:46;5.90;99.90
52555;DHT22;38455;52.710;6.502;2023-02-01T05:36:12;6.00;99.90
52555;DHT22;38455;52.710;6.502;2023-02-01T05:38:38;6.00;99.90
52555;DHT22;38455;52.710;6.502;2023-02-01T05:41:04;6.00;99.90
52555;DHT22;38455;52.710;6.502;2023-02-01T05:43:29;6.10;99.90
52555;DHT22;38455;52.710;6.502;2023-02-01T05:45:55;6.10;99.90
52555;DHT22;38455;52.710;6.502;2023-02-01T05:48:20;6.10;99.90
52555;DHT22;38455;52.710;6.502;2023-02-01T05:50:46;6.20;99.90
52555;DHT22;38455;52.710;6.502;2023-02-01T05:53:12;6.20;99.90
52555;DHT22;38455;52.710;6.502;2023-02-01T05:55:38;6.30;99.90
52555;DHT22;38455;52.710;6.502;2023-02-01T05:58:04;6.30;99.90
52555;DHT22;38455;52.710;6.502;2023-02-01T06:00:30;6.30;99.90
52555;DHT22;38455;52.710;6.502;2023-02-01T06:02:56;6.30;99.90
52555;DHT22;38455;52.710;6.502;2023-02-01T06:05:22;6.40;99.90
52555;DHT22;38455;52.710;6.502;2023-02-01T06:07:48;6.30;99.90
52555;DHT22;38455;52.710;6.502;2023-02-01T06:10:16;6.30;99.90
52555;DHT22;38455;52.710;6.502;2023-02-01T06:12:42;6.30;99.90
52555;DHT22;38455;52.710;6.502;2023-02-01T06:15:11;6.40;99.90
52555;DHT22;38455;52.710;6.502;2023-02-01T06:17:36;6.30;99.90
52555;DHT22;38455;52.710;6.502;2023-02-01T06:20:03;6.30;99.90
52555;DHT22;38455;52.710;6.502;2023-02-01T06:22:29;6.30;99.90
52555;DHT22;38455;52.710;6.502;2023-02-01T06:24:54;6.30;99.90
52555;DHT22;38455;52.710;6.502;2023-02-01T06:27:20;6.30;99.90
52555;DHT22;38455;52.710;6.502;2023-02-01T06:29:46;6.30;99.90
52555;DHT22;38455;52.710;6.502;2023-02-01T06:32:11;6.40;99.90
52555;DHT22;38455;52.710;6.502;2023-02-01T06:34:37;6.30;99.90
52555;DHT22;38455;52.710;6.502;2023-02-01T06:37:04;6.40;99.90
52555;DHT22;38455;52.710;6.502;2023-02-01T06:39:30;6.40;99.90
52555;DHT22;38455;52.710;6.502;2023-02-01T06:41:56;6.40;99.90
52555;DHT22;38455;52.710;6.502;2023-02-01T06:44:21;6.40;99.90
52555;DHT22;38455;52.710;6.502;2023-02-01T06:46:47;6.40;99.90
52555;DHT22;38455;52.710;6.502;2023-02-01T06:49:12;6.40;99.90
52555;DHT22;38455;52.710;6.502;2023-02-01T06:51:38;6.40;99.90
52555;DHT22;38455;52.710;6.502;2023-02-01T06:54:04;6.40;99.90
52555;DHT22;38455;52.710;6.502;2023-02-01T06:56:29;6.40;99.90
52555;DHT22;38455;52.710;6.502;2023-02-01T06:58:57;6.40;99.90
52555;DHT22;38455;52.710;6.502;2023-02-01T07:01:22;6.40;99.90
52555;DHT22;38455;52.710;6.502;2023-02-01T07:03:51;6.50;99.90
52555;DHT22;38455;52.710;6.502;2023-02-01T07:06:17;6.40;99.90
52555;DHT22;38455;52.710;6.502;2023-02-01T07:08:43;6.40;99.90
52555;DHT22;38455;52.710;6.502;2023-02-01T07:11:11;6.40;99.90
52555;DHT22;38455;52.710;6.502;2023-02-01T07:13:37;6.40;99.90
52555;DHT22;38455;52.710;6.502;2023-02-01T07:16:06;6.40;99.90
52555;DHT22;38455;52.710;6.502;2023-02-01T07:18:32;6.40;99.90
52555;DHT22;38455;52.710;6.502;2023-02-01T07:20:58;6.40;99.90
52555;DHT22;38455;52.710;6.502;2023-02-01T07:23:25;6.40;99.90
52555;DHT22;38455;52.710;6.502;2023-02-01T07:26:00;6.40;99.90
52555;DHT22;38455;52.710;6.502;2023-02-01T07:28:26;6.40;99.90
52555;DHT22;38455;52.710;6.502;2023-02-01T07:30:53;6.40;99.90
52555;DHT22;38455;52.710;6.502;2023-02-01T07:33:23;6.40;99.90
52555;DHT22;38455;52.710;6.502;2023-02-01T07:35:50;6.40;99.90
52555;DHT22;38455;52.710;6.502;2023-02-01T07:38:16;6.40;99.90
52555;DHT22;38455;52.710;6.502;2023-02-01T07:40:42;6.40;99.90
52555;DHT22;38455;52.710;6.502;2023-02-01T07:43:08;6.40;99.90
52555;DHT22;38455;52.710;6.502;2023-02-01T07:45:37;6.50;99.90
52555;DHT22;38455;52.710;6.502;2023-02-01T07:48:03;6.50;99.90
52555;DHT22;38455;52.710;6.502;2023-02-01T07:50:29;6.50;99.90
52555;DHT22;38455;52.710;6.502;2023-02-01T07:52:55;6.50;99.90
52555;DHT22;38455;52.710;6.502;2023-02-01T07:55:21;6.50;99.90
52555;DHT22;38455;52.710;6.502;2023-02-01T07:57:46;6.50;99.90
52555;DHT22;38455;52.710;6.502;2023-02-01T08:00:13;6.50;99.90
52555;DHT22;38455;52.710;6.502;2023-02-01T08:02:58;6.40;99.90
52555;DHT22;38455;52.710;6.502;2023-02-01T08:05:26;6.30;99.90
52555;DHT22;38455;52.710;6.502;2023-02-01T08:07:52;6.30;99.90
52555;DHT22;38455;52.710;6.502;2023-02-01T08:10:19;6.30;99.90
52555;DHT22;38455;52.710;6.502;2023-02-01T08:12:45;6.30;99.90
52555;DHT22;38455;52.710;6.502;2023-02-01T08:15:17;6.30;99.90
52555;DHT22;38455;52.710;6.502;2023-02-01T08:17:50;6.40;99.90
52555;DHT22;38455;52.710;6.502;2023-02-01T08:20:17;6.50;99.90
52555;DHT22;38455;52.710;6.502;2023-02-01T08:22:43;6.70;99.90
52555;DHT22;38455;52.710;6.502;2023-02-01T08:25:09;6.70;99.90
52555;DHT22;38455;52.710;6.502;2023-02-01T08:27:35;6.70;99.90
52555;DHT22;38455;52.710;6.502;2023-02-01T08:30:01;6.70;99.90
52555;DHT22;38455;52.710;6.502;2023-02-01T08:32:27;6.70;99.90
52555;DHT22;38455;52.710;6.502;2023-02-01T08:34:53;6.70;99.90
52555;DHT22;38455;52.710;6.502;2023-02-01T08:37:19;6.70;99.90
52555;DHT22;38455;52.710;6.502;2023-02-01T08:39:45;6.70;99.90
52555;DHT22;38455;52.710;6.502;2023-02-01T08:42:11;6.60;99.90
52555;DHT22;38455;52.710;6.502;2023-02-01T08:44:56;6.70;99.90
52555;DHT22;38455;52.710;6.502;2023-02-01T08:47:21;6.70;99.90
52555;DHT22;38455;52.710;6.502;2023-02-01T08:49:47;6.70;99.90
52555;DHT22;38455;52.710;6.502;2023-02-01T08:52:13;6.70;99.90
52555;DHT22;38455;52.710;6.502;2023-02-01T08:54:39;6.60;99.90
52555;DHT22;38455;52.710;6.502;2023-02-01T08:57:07;6.70;99.90
52555;DHT22;38455;52.710;6.502;2023-02-01T08:59:33;6.70;99.90
52555;DHT22;38455;52.710;6.502;2023-02-01T09:01:58;6.70;99.90
52555;DHT22;38455;52.710;6.502;2023-02-01T09:04:24;6.70;99.90
52555;DHT22;38455;52.710;6.502;2023-02-01T09:06:50;6.70;99.90
52555;DHT22;38455;52.710;6.502;2023-02-01T09:09:15;6.70;99.90
52555;DHT22;38455;52.710;6.502;2023-02-01T09:11:41;6.70;99.90
52555;DHT22;38455;52.710;6.502;2023-02-01T09:14:06;6.70;99.90
52555;DHT22;38455;52.710;6.502;2023-02-01T09:16:32;6.70;99.90
52555;DHT22;38455;52.710;6.502;2023-02-01T09:18:58;6.70;99.90
52555;DHT22;38455;52.710;6.502;2023-02-01T09:21:23;6.80;99.90
52555;DHT22;38455;52.710;6.502;2023-02-01T09:23:51;6.80;99.90
52555;DHT22;38455;52.710;6.502;2023-02-01T09:26:16;6.80;99.90
52555;DHT22;38455;52.710;6.502;2023-02-01T09:28:42;6.80;99.90
52555;DHT22;38455;52.710;6.502;2023-02-01T09:31:07;6.80;99.90
52555;DHT22;38455;52.710;6.502;2023-02-01T09:33:33;6.80;99.90
52555;DHT22;38455;52.710;6.502;2023-02-01T09:36:01;6.80;99.90
52555;DHT22;38455;52.710;6.502;2023-02-01T09:38:27;6.80;99.90
52555;DHT22;38455;52.710;6.502;2023-02-01T09:40:54;6.70;99.90
52555;DHT22;38455;52.710;6.502;2023-02-01T09:43:33;6.70;99.90
52555;DHT22;38455;52.710;6.502;2023-02-01T09:48:39;6.70;99.90
52555;DHT22;38455;52.710;6.502;2023-02-01T09:51:16;6.80;99.90
52555;DHT22;38455;52.710;6.502;2023-02-01T09:53:48;6.80;99.90
52555;DHT22;38455;52.710;6.502;2023-02-01T09:56:23;6.80;99.90
52555;DHT22;38455;52.710;6.502;2023-02-01T10:01:31;6.80;99.90
52555;DHT22;38455;52.710;6.502;2023-02-01T10:04:05;6.80;99.90
52555;DHT22;38455;52.710;6.502;2023-02-01T10:25:56;6.60;99.90
52555;DHT22;38455;52.710;6.502;2023-02-01T10:28:26;6.60;99.90
52555;DHT22;38455;52.710;6.502;2023-02-01T10:30:56;6.60;99.90
52555;DHT22;38455;52.710;6.502;2023-02-01T10:33:32;6.60;99.90
52555;DHT22;38455;52.710;6.502;2023-02-01T10:36:13;6.60;99.90
52555;DHT22;38455;52.710;6.502;2023-02-01T10:38:42;6.60;99.90
52555;DHT22;38455;52.710;6.502;2023-02-01T10:41:33;6.70;99.90
52555;DHT22;38455;52.710;6.502;2023-02-01T10:44:02;6.70;99.90
52555;DHT22;38455;52.710;6.502;2023-02-01T10:46:30;6.70;99.90
52555;DHT22;38455;52.710;6.502;2023-02-01T10:48:58;6.70;99.90
52555;DHT22;38455;52.710;6.502;2023-02-01T10:51:53;6.50;99.90
52555;DHT22;38455;52.710;6.502;2023-02-01T10:54:31;6.50;99.90
52555;DHT22;38455;52.710;6.502;2023-02-01T10:56:57;6.40;99.90
52555;DHT22;38455;52.710;6.502;2023-02-01T10:59:24;6.50;99.90
52555;DHT22;38455;52.710;6.502;2023-02-01T11:02:00;6.40;99.90
52555;DHT22;38455;52.710;6.502;2023-02-01T11:04:32;6.50;99.90
52555;DHT22;38455;52.710;6.502;2023-02-01T11:07:20;6.50;99.90
52555;DHT22;38455;52.710;6.502;2023-02-01T11:09:51;6.50;99.90
52555;DHT22;38455;52.710;6.502;2023-02-01T11:12:31;6.50;99.90
52555;DHT22;38455;52.710;6.502;2023-02-01T11:15:22;6.60;99.90
52555;DHT22;38455;52.710;6.502;2023-02-01T11:17:49;6.60;99.90
52555;DHT22;38455;52.710;6.502;2023-02-01T11:20:38;6.70;99.90
52555;DHT22;38455;52.710;6.502;2023-02-01T11:23:05;6.70;99.90
52555;DHT22;38455;52.710;6.502;2023-02-01T11:25:36;6.70;99.90
52555;DHT22;38455;52.710;6.502;2023-02-01T11:28:02;6.80;99.90
52555;DHT22;38455;52.710;6.502;2023-02-01T11:30:32;6.80;99.90
52555;DHT22;38455;52.710;6.502;2023-02-01T11:32:59;6.90;99.90
52555;DHT22;38455;52.710;6.502;2023-02-01T11:35:27;6.80;99.90
52555;DHT22;38455;52.710;6.502;2023-02-01T11:37:58;6.80;99.90
52555;DHT22;38455;52.710;6.502;2023-02-01T11:40:37;6.90;99.90
52555;DHT22;38455;52.710;6.502;2023-02-01T11:45:33;7.10;99.90
52555;DHT22;38455;52.710;6.502;2023-02-01T11:48:00;7.10;99.90
52555;DHT22;38455;52.710;6.502;2023-02-01T12:04:39;6.70;99.90
52555;DHT22;38455;52.710;6.502;2023-02-01T12:07:23;6.70;99.90
52555;DHT22;38455;52.710;6.502;2023-02-01T12:09:56;6.80;99.90
52555;DHT22;38455;52.710;6.502;2023-02-01T12:12:48;6.90;99.90
52555;DHT22;38455;52.710;6.502;2023-02-01T12:15:27;7.00;99.90
52555;DHT22;38455;52.710;6.502;2023-02-01T12:18:09;7.00;99.90
52555;DHT22;38455;52.710;6.502;2023-02-01T12:21:00;7.00;99.90
52555;DHT22;38455;52.710;6.502;2023-02-01T12:29:11;7.00;99.90
52555;DHT22;38455;52.710;6.502;2023-02-01T12:40:40;7.00;99.90
52555;DHT22;38455;52.710;6.502;2023-02-01T12:43:16;7.00;99.90
52555;DHT22;38455;52.710;6.502;2023-02-01T12:45:58;6.90;99.90
52555;DHT22;38455;52.710;6.502;2023-02-01T12:51:15;6.70;99.90
52555;DHT22;38455;52.710;6.502;2023-02-01T12:53:50;6.70;99.90
52555;DHT22;38455;52.710;6.502;2023-02-01T12:56:40;6.70;99.90
52555;DHT22;38455;52.710;6.502;2023-02-01T12:59:21;6.70;99.90
52555;DHT22;38455;52.710;6.502;2023-02-01T13:02:01;6.80;99.90
52555;DHT22;38455;52.710;6.502;2023-02-01T13:04:36;6.80;99.90
52555;DHT22;38455;52.710;6.502;2023-02-01T13:07:18;6.90;99.90
52555;DHT22;38455;52.710;6.502;2023-02-01T13:10:18;6.90;99.90
52555;DHT22;38455;52.710;6.502;2023-02-01T13:13:16;7.00;99.90
52555;DHT22;38455;52.710;6.502;2023-02-01T13:15:47;7.00;99.90
52555;DHT22;38455;52.710;6.502;2023-02-01T13:18:18;7.00;99.90
52555;DHT22;38455;52.710;6.502;2023-02-01T13:21:05;7.10;99.90
52555;DHT22;38455;52.710;6.502;2023-02-01T13:23:38;7.20;99.90
52555;DHT22;38455;52.710;6.502;2023-02-01T13:26:04;7.20;99.90
52555;DHT22;38455;52.710;6.502;2023-02-01T13:28:44;7.30;99.90
52555;DHT22;38455;52.710;6.502;2023-02-01T13:31:40;7.40;99.90
52555;DHT22;38455;52.710;6.502;2023-02-01T13:43:13;7.80;99.90
52555;DHT22;38455;52.710;6.502;2023-02-01T13:45:52;7.80;99.90
52555;DHT22;38455;52.710;6.502;2023-02-01T13:48:33;7.80;99.90
52555;DHT22;38455;52.710;6.502;2023-02-01T13:51:02;7.80;99.90
52555;DHT22;38455;52.710;6.502;2023-02-01T13:53:35;7.80;99.90
52555;DHT22;38455;52.710;6.502;2023-02-01T13:56:15;7.80;99.90
52555;DHT22;38455;52.710;6.502;2023-02-01T13:58:43;7.80;99.90
52555;DHT22;38455;52.710;6.502;2023-02-01T14:03:51;7.90;99.90
52555;DHT22;38455;52.710;6.502;2023-02-01T14:06:32;7.90;99.90
52555;DHT22;38455;52.710;6.502;2023-02-01T14:09:15;8.00;99.90
52555;DHT22;38455;52.710;6.502;2023-02-01T14:11:49;8.00;99.90
52555;DHT22;38455;52.710;6.502;2023-02-01T14:19:32;7.90;99.90
52555;DHT22;38455;52.710;6.502;2023-02-01T14:22:31;8.00;99.90
52555;DHT22;38455;52.710;6.502;2023-02-01T14:24:50;8.00;99.90
52555;DHT22;38455;52.710;6.502;2023-02-01T14:27:24;8.00;99.90
52555;DHT22;38455;52.710;6.502;2023-02-01T14:30:14;8.00;99.90
52555;DHT22;38455;52.710;6.502;2023-02-01T14:32:39;8.00;99.90
52555;DHT22;38455;52.710;6.502;2023-02-01T14:35:16;8.10;99.90
52555;DHT22;38455;52.710;6.502;2023-02-01T14:37:43;8.10;99.90
52555;DHT22;38455;52.710;6.502;2023-02-01T14:42:49;8.10;99.90
52555;DHT22;38455;52.710;6.502;2023-02-01T14:52:59;8.00;99.90
52555;DHT22;38455;52.710;6.502;2023-02-01T14:58:18;8.00;99.90
52555;DHT22;38455;52.710;6.502;2023-02-01T15:00:56;7.90;99.90
52555;DHT22;38455;52.710;6.502;2023-02-01T15:03:41;7.90;99.90
52555;DHT22;38455;52.710;6.502;2023-02-01T15:08:49;7.90;99.90
52555;DHT22;38455;52.710;6.502;2023-02-01T15:11:17;7.90;99.90
52555;DHT22;38455;52.710;6.502;2023-02-01T15:13:49;7.90;99.90
52555;DHT22;38455;52.710;6.502;2023-02-01T15:16:16;7.90;99.90
52555;DHT22;38455;52.710;6.502;2023-02-01T15:18:43;7.90;99.90
52555;DHT22;38455;52.710;6.502;2023-02-01T15:21:20;7.90;99.90
52555;DHT22;38455;52.710;6.502;2023-02-01T15:23:47;7.90;99.90
52555;DHT22;38455;52.710;6.502;2023-02-01T15:26:30;7.90;99.90
52555;DHT22;38455;52.710;6.502;2023-02-01T15:28:57;7.90;99.90
52555;DHT22;38455;52.710;6.502;2023-02-01T15:31:35;7.90;99.90
52555;DHT22;38455;52.710;6.502;2023-02-01T15:34:02;7.90;99.90
52555;DHT22;38455;52.710;6.502;2023-02-01T15:36:27;7.90;99.90
52555;DHT22;38455;52.710;6.502;2023-02-01T15:41:40;7.80;99.90
52555;DHT22;38455;52.710;6.502;2023-02-01T15:44:27;7.80;99.90
52555;DHT22;38455;52.710;6.502;2023-02-01T15:46:53;7.80;99.90
52555;DHT22;38455;52.710;6.502;2023-02-01T15:49:39;7.70;99.90
52555;DHT22;38455;52.710;6.502;2023-02-01T15:52:37;7.70;99.90
52555;DHT22;38455;52.710;6.502;2023-02-01T15:55:18;7.70;99.90
52555;DHT22;38455;52.710;6.502;2023-02-01T15:57:45;7.60;99.90
52555;DHT22;38455;52.710;6.502;2023-02-01T16:00:27;7.60;99.90
52555;DHT22;38455;52.710;6.502;2023-02-01T16:02:58;7.50;99.90
52555;DHT22;38455;52.710;6.502;2023-02-01T16:05:42;7.50;99.90
52555;DHT22;38455;52.710;6.502;2023-02-01T16:08:19;7.50;99.90
52555;DHT22;38455;52.710;6.502;2023-02-01T16:10:48;7.50;99.90
52555;DHT22;38455;52.710;6.502;2023-02-01T16:13:15;7.50;99.90
52555;DHT22;38455;52.710;6.502;2023-02-01T16:15:41;7.50;99.90
52555;DHT22;38455;52.710;6.502;2023-02-01T16:18:07;7.50;99.90
52555;DHT22;38455;52.710;6.502;2023-02-01T16:20:34;7.40;99.90
52555;DHT22;38455;52.710;6.502;2023-02-01T16:23:04;7.40;99.90
52555;DHT22;38455;52.710;6.502;2023-02-01T16:25:30;7.40;99.90
52555;DHT22;38455;52.710;6.502;2023-02-01T16:27:56;7.30;99.90
52555;DHT22;38455;52.710;6.502;2023-02-01T16:30:21;7.20;99.90
52555;DHT22;38455;52.710;6.502;2023-02-01T16:32:54;7.10;99.90
52555;DHT22;38455;52.710;6.502;2023-02-01T16:35:25;7.20;99.90
52555;DHT22;38455;52.710;6.502;2023-02-01T16:37:52;7.10;99.90
52555;DHT22;38455;52.710;6.502;2023-02-01T16:40:19;7.00;99.90
52555;DHT22;38455;52.710;6.502;2023-02-01T16:42:49;7.00;99.90
52555;DHT22;38455;52.710;6.502;2023-02-01T16:45:15;6.90;99.90
52555;DHT22;38455;52.710;6.502;2023-02-01T16:47:46;6.90;99.90
52555;DHT22;38455;52.710;6.502;2023-02-01T16:50:17;6.90;99.90
52555;DHT22;38455;52.710;6.502;2023-02-01T16:52:44;6.90;99.90
52555;DHT22;38455;52.710;6.502;2023-02-01T16:55:14;6.80;99.90
52555;DHT22;38455;52.710;6.502;2023-02-01T16:57:41;6.80;99.90
52555;DHT22;38455;52.710;6.502;2023-02-01T17:00:11;6.80;99.90
52555;DHT22;38455;52.710;6.502;2023-02-01T17:02:37;6.80;99.90
52555;DHT22;38455;52.710;6.502;2023-02-01T17:05:04;6.70;99.90
52555;DHT22;38455;52.710;6.502;2023-02-01T17:07:30;6.70;99.90
52555;DHT22;38455;52.710;6.502;2023-02-01T17:09:56;6.70;99.90
52555;DHT22;38455;52.710;6.502;2023-02-01T17:12:30;6.60;99.90
52555;DHT22;38455;52.710;6.502;2023-02-01T17:14:58;6.60;99.90
52555;DHT22;38455;52.710;6.502;2023-02-01T17:17:28;6.50;99.90
52555;DHT22;38455;52.710;6.502;2023-02-01T17:19:55;6.60;99.90
52555;DHT22;38455;52.710;6.502;2023-02-01T17:22:22;6.60;99.90
52555;DHT22;38455;52.710;6.502;2023-02-01T17:24:48;6.50;99.90
52555;DHT22;38455;52.710;6.502;2023-02-01T17:27:16;6.50;99.90
52555;DHT22;38455;52.710;6.502;2023-02-01T17:29:42;6.50;99.90
52555;DHT22;38455;52.710;6.502;2023-02-01T17:32:19;6.50;99.90
52555;DHT22;38455;52.710;6.502;2023-02-01T17:34:45;6.50;99.90
52555;DHT22;38455;52.710;6.502;2023-02-01T17:37:28;6.40;99.90
52555;DHT22;38455;52.710;6.502;2023-02-01T17:39:54;6.40;99.90
52555;DHT22;38455;52.710;6.502;2023-02-01T17:42:20;6.40;99.90
52555;DHT22;38455;52.710;6.502;2023-02-01T17:44:46;6.40;99.90
52555;DHT22;38455;52.710;6.502;2023-02-01T17:47:12;6.50;99.90
52555;DHT22;38455;52.710;6.502;2023-02-01T17:49:37;6.40;99.90
52555;DHT22;38455;52.710;6.502;2023-02-01T17:52:04;6.40;99.90
52555;DHT22;38455;52.710;6.502;2023-02-01T17:54:30;6.30;99.90
52555;DHT22;38455;52.710;6.502;2023-02-01T17:56:56;6.30;99.90
52555;DHT22;38455;52.710;6.502;2023-02-01T17:59:26;6.40;99.90
52555;DHT22;38455;52.710;6.502;2023-02-01T18:01:51;6.40;99.90